Terminal Aerodrome Forecast
Issued by NWS

Home | Current Version | Previous Version | Text Only | Print | Product List | Glossary On
Versions: 1 2 3 4 5 6 7 8 9 10 11 12 13 14 15 16 17 18 19 20 21
903
FTUS43 KDLH 231120
TAFHIB
TAF
KHIB 231120Z 2312/2412 VRB02KT 6SM BR BKN010
     FM231300 VRB03KT 6SM BR SCT016
     FM231600 VRB03KT P6SM BKN019
     FM232300 18006KT P6SM BKN045
     FM240300 18007KT P6SM BKN060 WS020/23036KT=

USA.gov is the U.S. government's official web portal to all federal, state and local government web resources and services.